Findlay, Ohio
Current Conditions -  °F | °C
As of 4:31 PM on Thursday 18 Dec 2014 (Local Time) from KFDY Reporting Station
Overcast Overcast  
Wind Chill: 21°   Ceiling: 1400
Heat Index: 30°   Visibility: 10mi
Dew Point: 23°   Wind: 10mph
Humidity: 75%   Direction: 260°W
Pressure: 30.19"   Gusts: NA
Location:  41.04°N, 83.65°W
Report Text: KFDY 182131Z AUTO 26009KT 10SM BKN014 OVC024 M01/M05 A3019 RMK AO2 T10111050
Loading
Personal Weather Stations






























Interactive Weather Map New forecast layout! Learn more

10-Day Weather Forecast

Advertisements
Track Severe Weather on mobile